createdAt,value
2019-05-25T00:00:06.757Z,92.69
2019-05-25T00:01:06.731Z,92.69
2019-05-25T00:02:06.709Z,92.69
2019-05-25T00:03:06.746Z,92.60
2019-05-25T00:04:06.671Z,92.88
2019-05-25T00:05:06.653Z,92.31
2019-05-25T00:06:06.631Z,92.21
2019-05-25T00:07:06.619Z,92.21
2019-05-25T00:08:06.594Z,92.31
2019-05-25T00:09:06.575Z,92.21
2019-05-25T00:10:06.563Z,92.50
2019-05-25T00:11:06.533Z,92.79
2019-05-25T00:12:06.517Z,92.60
2019-05-25T00:13:06.513Z,92.79
2019-05-25T00:14:06.494Z,92.88
2019-05-25T00:15:06.458Z,92.50
2019-05-25T00:16:06.451Z,92.69
2019-05-25T00:17:06.419Z,92.21
2019-05-25T00:18:06.405Z,92.69
2019-05-25T00:19:06.382Z,92.60
2019-05-25T00:20:06.359Z,92.60
2019-05-25T00:21:06.341Z,92.41
2019-05-25T00:22:06.321Z,92.69
2019-05-25T00:23:06.317Z,93.17
2019-05-25T00:24:12.226Z,92.79
2019-05-25T00:25:06.263Z,92.69
2019-05-25T00:26:06.254Z,93.46
2019-05-25T00:27:06.225Z,93.74
2019-05-25T00:28:06.211Z,94.03
2019-05-25T00:29:06.188Z,93.70
2019-05-25T00:30:06.169Z,94.27
2019-05-25T00:31:06.146Z,94.17
2019-05-25T00:32:06.128Z,94.17
2019-05-25T00:33:06.105Z,94.74
2019-05-25T00:34:06.087Z,95.61
2019-05-25T00:35:06.067Z,95.61
2019-05-25T00:36:06.051Z,95.61
2019-05-25T00:37:06.030Z,96.08
2019-05-25T00:38:06.062Z,95.98
2019-05-25T00:39:05.998Z,95.98
2019-05-25T00:40:05.980Z,96.17
2019-05-25T00:41:05.955Z,96.17
2019-05-25T00:42:05.935Z,95.61
2019-05-25T00:43:05.931Z,95.61
2019-05-25T00:44:05.894Z,95.32
2019-05-25T00:45:05.873Z,95.36
2019-05-25T00:46:05.862Z,94.98
2019-05-25T00:47:05.838Z,95.08
2019-05-25T00:48:05.822Z,93.55
2019-05-25T00:49:05.796Z,93.46
2019-05-25T00:50:05.777Z,93.36
2019-05-25T00:51:05.759Z,93.07
2019-05-25T00:52:05.740Z,92.02
2019-05-25T00:53:05.720Z,91.64
2019-05-25T00:54:05.706Z,91.93
2019-05-25T00:55:05.683Z,91.64
2019-05-25T00:56:05.665Z,91.55
2019-05-25T00:57:05.647Z,91.59
2019-05-25T00:58:05.620Z,91.40
2019-05-25T00:59:05.602Z,91.21
2019-05-25T01:00:05.585Z,91.02
2019-05-25T01:01:05.736Z,90.92
2019-05-25T01:02:05.547Z,90.40
2019-05-25T01:03:05.528Z,90.50
2019-05-25T01:04:05.508Z,90.97
2019-05-25T01:05:05.487Z,91.26
2019-05-25T01:06:05.468Z,91.83
2019-05-25T01:07:05.447Z,91.83
2019-05-25T01:08:05.435Z,91.36
2019-05-25T01:09:05.412Z,91.07
2019-05-25T01:10:05.394Z,91.74
2019-05-25T01:11:05.381Z,91.93
2019-05-25T01:12:05.355Z,92.02
2019-05-25T01:13:05.332Z,91.64
2019-05-25T01:14:05.319Z,92.26
2019-05-25T01:15:05.296Z,92.50
2019-05-25T01:16:05.281Z,92.69
2019-05-25T01:17:05.259Z,92.79
2019-05-25T01:18:05.234Z,92.60
2019-05-25T01:19:05.214Z,92.88
2019-05-25T01:20:05.206Z,92.50
2019-05-25T01:21:05.176Z,92.50
2019-05-25T01:22:05.164Z,92.60
2019-05-25T01:23:05.139Z,93.46
2019-05-25T01:24:05.119Z,92.50
2019-05-25T01:25:05.099Z,92.12
2019-05-25T01:26:05.077Z,92.21
2019-05-25T01:27:05.059Z,92.60
2019-05-25T01:28:05.043Z,92.50
2019-05-25T01:29:05.025Z,92.69
2019-05-25T01:30:04.999Z,92.21
2019-05-25T01:31:04.981Z,92.31
2019-05-25T01:32:04.960Z,91.83
2019-05-25T01:33:04.943Z,92.21
2019-05-25T01:34:04.928Z,91.93
2019-05-25T01:35:04.913Z,92.21
2019-05-25T01:36:04.883Z,92.41
2019-05-25T01:37:04.861Z,92.88
2019-05-25T01:38:04.843Z,92.60
2019-05-25T01:39:04.822Z,91.88
2019-05-25T01:40:04.806Z,92.17
2019-05-25T01:41:04.784Z,93.08
2019-05-25T01:42:04.767Z,93.55
2019-05-25T01:43:04.744Z,94.79
2019-05-25T01:44:04.725Z,95.70
2019-05-25T01:45:04.711Z,96.94
2019-05-25T01:46:04.691Z,98.18
2019-05-25T01:47:04.674Z,98.36
2019-05-25T01:48:04.706Z,99.04
2019-05-25T01:49:04.632Z,99.99
2019-05-25T01:50:04.610Z,99.99
2019-05-25T01:51:04.587Z,99.99
2019-05-25T01:52:04.570Z,99.99
2019-05-25T01:53:04.547Z,99.99
2019-05-25T01:54:04.532Z,99.99
2019-05-25T01:55:04.508Z,99.99
2019-05-25T01:56:04.491Z,99.99
2019-05-25T01:57:04.471Z,99.99
2019-05-25T01:58:04.454Z,99.99
2019-05-25T01:59:04.437Z,99.99
2019-05-25T02:00:04.423Z,99.99
2019-05-25T02:01:04.391Z,99.99
2019-05-25T02:02:04.378Z,99.99
2019-05-25T02:03:04.355Z,99.99
2019-05-25T02:04:04.332Z,99.99
2019-05-25T02:05:04.311Z,99.99
2019-05-25T02:06:04.293Z,99.99
2019-05-25T02:07:04.272Z,99.99
2019-05-25T02:08:04.254Z,99.99
2019-05-25T02:09:04.238Z,99.99
2019-05-25T02:10:04.220Z,99.99
2019-05-25T02:11:04.195Z,99.99
2019-05-25T02:12:04.180Z,99.99
2019-05-25T02:13:04.153Z,99.99
2019-05-25T02:14:04.134Z,99.99
2019-05-25T02:15:04.115Z,99.99
2019-05-25T02:16:04.101Z,99.99
2019-05-25T02:17:04.076Z,99.99
2019-05-25T02:18:04.057Z,99.99
2019-05-25T02:19:04.034Z,99.99
2019-05-25T02:20:04.033Z,99.99
2019-05-25T02:21:03.999Z,99.99
2019-05-25T02:22:03.981Z,99.99
2019-05-25T02:23:03.958Z,99.99
2019-05-25T02:24:03.945Z,99.99
2019-05-25T02:25:17.166Z,99.99
2019-05-25T02:26:03.896Z,99.99
2019-05-25T02:27:03.878Z,99.99
2019-05-25T02:28:03.862Z,99.99
2019-05-25T02:29:03.848Z,99.99
2019-05-25T02:30:03.847Z,99.99
2019-05-25T02:31:03.795Z,99.99
2019-05-25T02:32:03.773Z,99.99
2019-05-25T02:33:03.755Z,99.99
2019-05-25T02:34:03.743Z,99.99
2019-05-25T02:35:03.716Z,99.99
2019-05-25T02:36:03.696Z,99.99
2019-05-25T02:37:03.679Z,99.99
2019-05-25T02:38:03.659Z,99.99
2019-05-25T02:39:03.639Z,99.99
2019-05-25T02:40:03.618Z,99.99
2019-05-25T02:41:03.597Z,99.99
2019-05-25T02:42:03.576Z,99.99
2019-05-25T02:43:03.558Z,99.99
2019-05-25T02:44:03.537Z,99.99
2019-05-25T02:45:03.519Z,99.99
2019-05-25T02:46:03.496Z,99.99
2019-05-25T02:47:03.514Z,99.99
2019-05-25T02:48:03.480Z,99.99
2019-05-25T02:49:03.436Z,99.99
2019-05-25T02:50:03.415Z,99.99
2019-05-25T02:51:03.396Z,99.99
2019-05-25T02:52:03.378Z,99.99
2019-05-25T02:53:03.358Z,99.99
2019-05-25T02:54:03.335Z,99.99
2019-05-25T02:55:03.321Z,99.99
2019-05-25T02:56:03.297Z,99.99
2019-05-25T02:57:03.277Z,99.99
2019-05-25T02:58:03.267Z,99.99
2019-05-25T02:59:03.247Z,99.99
2019-05-25T03:00:03.220Z,99.99
2019-05-25T03:01:03.195Z,99.99
2019-05-25T03:02:03.173Z,99.99
2019-05-25T03:03:03.163Z,99.99
2019-05-25T03:04:03.145Z,99.99
2019-05-25T03:05:03.115Z,99.99
2019-05-25T03:06:03.559Z,99.99
2019-05-25T03:07:03.077Z,99.99
2019-05-25T03:08:03.061Z,99.99
2019-05-25T03:09:03.032Z,99.99
2019-05-25T03:10:03.029Z,99.99
2019-05-25T03:11:02.992Z,99.99
2019-05-25T03:12:02.974Z,99.99
2019-05-25T03:13:02.954Z,99.99
2019-05-25T03:14:02.933Z,99.99
2019-05-25T03:15:03.062Z,99.99
2019-05-25T03:16:02.894Z,99.99
2019-05-25T03:17:02.874Z,99.99
2019-05-25T03:18:02.850Z,99.99
2019-05-25T03:19:02.832Z,99.99
2019-05-25T03:20:02.810Z,99.99
2019-05-25T03:21:02.795Z,99.99
2019-05-25T03:22:02.784Z,99.99
2019-05-25T03:23:02.762Z,99.99
2019-05-25T03:24:02.739Z,99.99
2019-05-25T03:25:02.709Z,99.99
2019-05-25T03:26:02.690Z,99.99
2019-05-25T03:27:02.671Z,99.99
2019-05-25T03:28:02.649Z,99.99
2019-05-25T03:29:02.631Z,99.99
2019-05-25T03:30:02.623Z,99.99
2019-05-25T03:31:02.591Z,99.99
2019-05-25T03:32:02.569Z,99.99
2019-05-25T03:33:02.564Z,99.99
2019-05-25T03:34:02.529Z,99.99
2019-05-25T03:35:02.516Z,99.99
2019-05-25T03:36:02.490Z,99.99
2019-05-25T03:37:02.466Z,99.99
2019-05-25T03:38:02.449Z,99.99
2019-05-25T03:39:02.427Z,99.99
2019-05-25T03:40:02.407Z,99.99
2019-05-25T03:41:02.389Z,99.99
2019-05-25T03:42:02.375Z,99.99
2019-05-25T03:43:02.344Z,99.99
2019-05-25T03:44:02.327Z,99.99
2019-05-25T03:45:02.314Z,99.99
2019-05-25T03:46:02.287Z,99.99
2019-05-25T03:47:02.270Z,99.99
2019-05-25T03:48:02.244Z,99.99
2019-05-25T03:49:02.225Z,99.99
2019-05-25T03:50:02.210Z,99.99
2019-05-25T03:51:02.182Z,99.99
2019-05-25T03:52:02.174Z,99.99
2019-05-25T03:53:02.142Z,99.99
2019-05-25T03:54:02.124Z,99.99
2019-05-25T03:55:02.114Z,99.99
2019-05-25T03:56:05.920Z,99.99
2019-05-25T03:57:02.064Z,99.99
2019-05-25T03:58:02.046Z,99.99
2019-05-25T03:59:02.021Z,99.99
2019-05-25T04:00:02.004Z,99.99
2019-05-25T04:01:01.983Z,99.99
2019-05-25T04:02:01.962Z,99.99
2019-05-25T04:03:01.943Z,99.99
2019-05-25T04:04:01.931Z,99.99
2019-05-25T04:05:02.083Z,99.99
2019-05-25T04:06:01.883Z,99.99
2019-05-25T04:07:01.861Z,99.99
2019-05-25T04:08:01.844Z,99.99
2019-05-25T04:09:01.821Z,99.99
2019-05-25T04:10:01.980Z,99.99
2019-05-25T04:11:01.789Z,99.99
2019-05-25T04:12:01.761Z,99.71
2019-05-25T04:13:01.742Z,98.56
2019-05-25T04:14:01.720Z,98.37
2019-05-25T04:15:01.701Z,98.27
2019-05-25T04:16:01.681Z,98.37
2019-05-25T04:17:01.664Z,97.42
2019-05-25T04:18:01.641Z,97.22
2019-05-25T04:19:01.621Z,97.13
2019-05-25T04:20:01.601Z,97.27
2019-05-25T04:21:01.580Z,96.66
2019-05-25T04:22:01.562Z,96.46
2019-05-25T04:23:01.549Z,97.13
2019-05-25T04:24:01.523Z,96.42
2019-05-25T04:25:01.500Z,96.84
2019-05-25T04:26:01.480Z,96.42
2019-05-25T04:27:01.459Z,96.22
2019-05-25T04:28:01.451Z,95.70
2019-05-25T04:29:01.425Z,96.75
2019-05-25T04:30:01.407Z,96.89
2019-05-25T04:31:01.378Z,96.42
2019-05-25T04:32:01.358Z,96.56
2019-05-25T04:33:01.341Z,96.66
2019-05-25T04:34:01.319Z,96.17
2019-05-25T04:35:01.515Z,96.46
2019-05-25T04:36:01.280Z,95.98
2019-05-25T04:37:01.260Z,96.17
2019-05-25T04:38:01.241Z,96.61
2019-05-25T04:39:01.241Z,97.03
2019-05-25T04:40:01.200Z,96.56
2019-05-25T04:41:01.187Z,97.37
2019-05-25T04:42:01.161Z,97.18
2019-05-25T04:43:01.141Z,97.08
2019-05-25T04:44:01.119Z,97.18
2019-05-25T04:45:01.105Z,96.61
2019-05-25T04:46:01.082Z,96.51
2019-05-25T04:47:01.062Z,96.22
2019-05-25T04:48:01.042Z,96.61
2019-05-25T04:49:01.020Z,96.22
2019-05-25T04:50:01.000Z,96.61
2019-05-25T04:51:00.982Z,96.42
2019-05-25T04:52:00.962Z,96.13
2019-05-25T04:53:00.941Z,96.13
2019-05-25T04:54:00.927Z,97.08
2019-05-25T04:55:00.913Z,96.42
2019-05-25T04:56:00.880Z,97.08
2019-05-25T04:57:00.893Z,96.42
2019-05-25T04:58:00.845Z,96.80
2019-05-25T04:59:00.826Z,96.80
2019-05-25T05:00:00.863Z,96.22
2019-05-25T05:01:00.781Z,96.80
2019-05-25T05:02:00.765Z,96.42
2019-05-25T05:03:00.745Z,95.75
2019-05-25T05:04:00.727Z,96.22
2019-05-25T05:05:00.702Z,96.80
2019-05-25T05:06:00.709Z,96.61
2019-05-25T05:07:00.663Z,96.98
2019-05-25T05:08:00.644Z,96.61
2019-05-25T05:09:00.622Z,96.98
2019-05-25T05:10:02.923Z,97.37
2019-05-25T05:11:00.583Z,96.61
2019-05-25T05:12:00.566Z,96.89
2019-05-25T05:13:00.542Z,95.94
2019-05-25T05:14:00.526Z,96.42
2019-05-25T05:15:00.506Z,96.61
2019-05-25T05:16:00.485Z,96.51
2019-05-25T05:17:00.471Z,96.89
2019-05-25T05:18:00.444Z,96.42
2019-05-25T05:19:00.425Z,95.27
2019-05-25T05:20:00.403Z,94.98
2019-05-25T05:21:00.390Z,94.98
2019-05-25T05:22:00.364Z,95.56
2019-05-25T05:23:00.344Z,94.89
2019-05-25T05:24:00.324Z,94.79
2019-05-25T05:25:00.308Z,94.89
2019-05-25T05:26:00.287Z,94.46
2019-05-25T05:27:00.268Z,94.55
2019-05-25T05:28:00.246Z,94.17
2019-05-25T05:29:00.238Z,94.27
2019-05-25T05:30:00.207Z,94.07
2019-05-25T05:31:00.191Z,93.79
2019-05-25T05:32:00.167Z,93.88
2019-05-25T05:33:00.153Z,94.07
2019-05-25T05:34:00.129Z,93.60
2019-05-25T05:35:00.108Z,93.70
2019-05-25T05:36:00.090Z,94.27
2019-05-25T05:37:00.068Z,94.22
2019-05-25T05:38:00.052Z,92.88
2019-05-25T05:39:00.031Z,92.41
2019-05-25T05:40:00.013Z,92.31
2019-05-25T05:40:59.993Z,92.31
2019-05-25T05:41:59.977Z,92.41
2019-05-25T05:42:59.951Z,92.60
2019-05-25T05:43:59.932Z,91.26
2019-05-25T05:44:59.909Z,91.55
2019-05-25T05:45:59.903Z,91.16
2019-05-25T05:46:59.987Z,91.64
2019-05-25T05:47:59.853Z,92.21
2019-05-25T05:48:59.836Z,92.79
2019-05-25T05:49:59.812Z,92.88
2019-05-25T05:50:59.799Z,92.88
2019-05-25T05:51:59.785Z,92.21
2019-05-25T05:52:59.763Z,91.74
2019-05-25T05:53:59.736Z,91.16
2019-05-25T05:54:59.715Z,91.64
2019-05-25T05:55:59.695Z,91.74
2019-05-25T05:57:11.604Z,92.12
2019-05-25T05:57:59.655Z,91.74
2019-05-25T05:58:59.637Z,91.83
2019-05-25T05:59:59.617Z,92.21
2019-05-25T06:00:59.603Z,92.88
2019-05-25T06:01:59.574Z,92.60
2019-05-25T06:02:59.559Z,92.41
2019-05-25T06:03:59.535Z,92.69
2019-05-25T06:04:59.515Z,92.12
2019-05-25T06:05:59.498Z,92.21
2019-05-25T06:06:59.481Z,91.83
2019-05-25T06:07:59.466Z,92.02
2019-05-25T06:08:59.446Z,92.97
2019-05-25T06:09:59.417Z,92.79
2019-05-25T06:10:59.409Z,93.07
2019-05-25T06:11:59.378Z,92.60
2019-05-25T06:12:59.366Z,92.60
2019-05-25T06:13:59.339Z,91.74
2019-05-25T06:14:59.320Z,92.02
2019-05-25T06:15:59.309Z,91.45
2019-05-25T06:16:59.304Z,92.41
2019-05-25T06:17:59.261Z,92.31
2019-05-25T06:18:59.239Z,91.64
2019-05-25T06:19:59.220Z,92.02
2019-05-25T06:20:59.205Z,91.83
2019-05-25T06:21:59.185Z,91.40
2019-05-25T06:22:59.165Z,91.83
2019-05-25T06:23:59.140Z,91.83
2019-05-25T06:24:59.121Z,91.93
2019-05-25T06:25:59.105Z,92.21
2019-05-25T06:26:59.086Z,91.83
2019-05-25T06:27:59.063Z,92.21
2019-05-25T06:28:59.040Z,92.31
2019-05-25T06:29:59.021Z,91.74
2019-05-25T06:30:58.998Z,91.26
2019-05-25T06:31:58.982Z,90.88
2019-05-25T06:32:58.992Z,91.55
2019-05-25T06:33:58.940Z,91.55
2019-05-25T06:34:58.918Z,90.97
2019-05-25T06:35:58.903Z,91.55
2019-05-25T06:36:58.886Z,92.26
2019-05-25T06:37:58.867Z,91.11
2019-05-25T06:38:58.849Z,91.69
2019-05-25T06:39:58.825Z,91.21
2019-05-25T06:40:58.814Z,91.11
2019-05-25T06:41:58.782Z,89.59
2019-05-25T06:42:58.774Z,89.78
2019-05-25T06:43:58.744Z,89.39
2019-05-25T06:44:58.723Z,89.49
2019-05-25T06:45:58.704Z,89.11
2019-05-25T06:46:58.691Z,87.10
2019-05-25T06:47:58.665Z,87.48
2019-05-25T06:48:58.646Z,88.34
2019-05-25T06:49:58.637Z,88.15
2019-05-25T06:50:58.608Z,88.25
2019-05-25T06:51:58.585Z,87.91
2019-05-25T06:52:58.567Z,86.67
2019-05-25T06:53:58.554Z,84.85
2019-05-25T06:54:58.525Z,85.71
2019-05-25T06:55:58.511Z,85.62
2019-05-25T06:56:58.508Z,84.76
2019-05-25T06:57:58.471Z,84.19
2019-05-25T06:58:58.447Z,82.84
2019-05-25T06:59:58.430Z,81.51
2019-05-25T07:00:58.411Z,80.84
2019-05-25T07:01:58.389Z,81.32
2019-05-25T07:02:58.370Z,81.03
2019-05-25T07:03:58.351Z,80.46
2019-05-25T07:04:58.332Z,80.80
2019-05-25T07:05:58.317Z,80.51
2019-05-25T07:06:58.296Z,79.60
2019-05-25T07:07:58.282Z,79.46
2019-05-25T07:08:58.251Z,80.65
2019-05-25T07:09:58.241Z,80.70
2019-05-25T07:10:58.213Z,82.04
2019-05-25T07:11:58.193Z,82.52
2019-05-25T07:12:58.184Z,82.90
2019-05-25T07:13:58.154Z,82.81
2019-05-25T07:14:58.142Z,82.42
2019-05-25T07:15:58.128Z,83.23
2019-05-25T07:16:58.099Z,79.85
2019-05-25T07:17:58.074Z,78.89
2019-05-25T07:18:58.058Z,79.08
2019-05-25T07:19:58.036Z,77.74
2019-05-25T07:20:58.015Z,77.84
2019-05-25T07:21:58.000Z,77.87
2019-05-25T07:22:57.980Z,77.17
2019-05-25T07:23:57.957Z,76.69
2019-05-25T07:24:57.934Z,76.79
2019-05-25T07:25:57.929Z,76.69
2019-05-25T07:26:57.897Z,76.45
2019-05-25T07:27:59.987Z,76.45
2019-05-25T07:28:57.857Z,76.06
2019-05-25T07:29:57.836Z,76.64
2019-05-25T07:30:57.821Z,76.25
2019-05-25T07:31:57.799Z,76.73
2019-05-25T07:32:57.778Z,76.45
2019-05-25T07:33:57.762Z,76.35
2019-05-25T07:34:57.740Z,76.82
2019-05-25T07:35:57.721Z,77.11
2019-05-25T07:36:57.709Z,76.16
2019-05-25T07:37:57.681Z,76.82
2019-05-25T07:38:57.659Z,77.01
2019-05-25T07:39:57.659Z,77.21
2019-05-25T07:40:57.630Z,77.21
2019-05-25T07:41:57.598Z,76.64
2019-05-25T07:42:57.579Z,76.82
2019-05-25T07:43:57.566Z,77.01
2019-05-25T07:44:57.539Z,77.01
2019-05-25T07:45:57.520Z,76.48
2019-05-25T07:46:57.499Z,75.91
2019-05-25T07:47:57.486Z,75.62
2019-05-25T07:48:57.461Z,74.95
2019-05-25T07:49:57.442Z,73.99
2019-05-25T07:50:57.425Z,73.33
2019-05-25T07:51:57.405Z,73.33
2019-05-25T07:52:57.393Z,73.90
2019-05-25T07:53:57.364Z,73.61
2019-05-25T07:54:57.346Z,73.04
2019-05-25T07:55:57.328Z,72.85
2019-05-25T07:56:57.303Z,73.33
2019-05-25T07:57:57.285Z,73.43
2019-05-25T07:58:57.265Z,73.61
2019-05-25T07:59:57.249Z,73.52
2019-05-25T08:00:57.225Z,74.09
2019-05-25T08:01:57.213Z,74.19
2019-05-25T08:02:57.192Z,73.04
2019-05-25T08:03:57.170Z,72.47
2019-05-25T08:04:57.147Z,73.14
2019-05-25T08:05:57.132Z,72.85
2019-05-25T08:06:57.109Z,72.31
2019-05-25T08:07:57.090Z,72.98
2019-05-25T08:08:57.076Z,72.88
2019-05-25T08:09:57.057Z,72.60
2019-05-25T08:10:57.035Z,72.41
2019-05-25T08:11:57.014Z,71.55
2019-05-25T08:12:56.993Z,72.60
2019-05-25T08:13:56.981Z,71.93
2019-05-25T08:14:56.960Z,72.92
2019-05-25T08:15:56.936Z,72.34
2019-05-25T08:16:56.920Z,70.91
2019-05-25T08:17:56.898Z,70.62
2019-05-25T08:18:56.879Z,70.97
2019-05-25T08:19:56.859Z,72.02
2019-05-25T08:20:56.843Z,71.73
2019-05-25T08:21:56.828Z,71.87
2019-05-25T08:22:56.804Z,71.48
2019-05-25T08:23:56.825Z,71.39
2019-05-25T08:24:56.777Z,71.30
2019-05-25T08:25:56.752Z,71.11
2019-05-25T08:26:56.727Z,73.24
2019-05-25T08:27:56.708Z,72.44
2019-05-25T08:28:56.699Z,70.53
2019-05-25T08:29:56.665Z,70.34
2019-05-25T08:30:56.650Z,71.58
2019-05-25T08:31:56.633Z,70.91
2019-05-25T08:32:56.615Z,70.53
2019-05-25T08:33:56.618Z,70.34
2019-05-25T08:34:56.586Z,70.62
2019-05-25T08:35:56.678Z,70.18
2019-05-25T08:36:56.534Z,70.28
2019-05-25T08:37:56.514Z,69.86
2019-05-25T08:38:56.542Z,70.43
2019-05-25T08:39:56.483Z,70.72
2019-05-25T08:40:56.459Z,70.24
2019-05-25T08:41:56.446Z,70.72
2019-05-25T08:42:56.431Z,71.87
2019-05-25T08:43:56.405Z,70.97
2019-05-25T08:44:56.383Z,71.83
2019-05-25T08:45:56.378Z,72.06
2019-05-25T08:46:56.348Z,71.77
2019-05-25T08:47:57.399Z,70.81
2019-05-25T08:48:56.309Z,71.68
2019-05-25T08:49:56.311Z,72.34
2019-05-25T08:50:59.404Z,72.16
2019-05-25T08:51:56.255Z,71.11
2019-05-25T08:52:56.235Z,72.25
2019-05-25T08:53:56.217Z,72.44
2019-05-25T08:54:56.734Z,70.91
2019-05-25T08:55:56.177Z,71.33
2019-05-25T08:56:56.201Z,70.34
2019-05-25T08:57:56.136Z,70.24
2019-05-25T08:58:56.120Z,71.39
2019-05-25T08:59:56.102Z,72.06
2019-05-25T09:00:56.093Z,72.25
2019-05-25T09:01:56.065Z,71.11
2019-05-25T09:02:56.052Z,71.97
2019-05-25T09:03:56.031Z,72.25
2019-05-25T09:04:56.018Z,71.33
2019-05-25T09:05:55.985Z,70.66
2019-05-25T09:06:55.979Z,70.56
2019-05-25T09:07:56.039Z,70.41
2019-05-25T09:08:55.933Z,69.74
2019-05-25T09:09:55.921Z,68.68
2019-05-25T09:10:55.893Z,69.74
2019-05-25T09:11:55.883Z,70.79
2019-05-25T09:12:55.856Z,68.43
2019-05-25T09:13:55.876Z,68.14
2019-05-25T09:14:55.828Z,68.33
2019-05-25T09:15:55.850Z,69.77
2019-05-25T09:16:55.786Z,69.10
2019-05-25T09:17:55.770Z,68.91
2019-05-25T09:18:55.760Z,68.01
2019-05-25T09:19:55.735Z,68.30
2019-05-25T09:20:55.717Z,68.21
2019-05-25T09:22:02.749Z,68.40
2019-05-25T09:22:55.677Z,68.59
2019-05-25T09:23:55.657Z,69.83
2019-05-25T09:24:55.638Z,70.31
2019-05-25T09:25:55.626Z,69.74
2019-05-25T09:26:55.602Z,69.60
2019-05-25T09:27:55.580Z,69.74
2019-05-25T09:29:03.891Z,69.74
2019-05-25T09:29:55.552Z,68.65
2019-05-25T09:30:55.523Z,69.93
2019-05-25T09:31:55.511Z,70.50
2019-05-25T09:32:55.489Z,70.79
2019-05-25T09:33:55.469Z,69.64
2019-05-25T09:34:55.453Z,70.66
2019-05-25T09:35:55.437Z,70.37
2019-05-25T09:36:55.422Z,70.50
2019-05-25T09:37:55.404Z,70.79
2019-05-25T09:38:55.385Z,70.50
2019-05-25T09:39:55.360Z,69.74
2019-05-25T09:40:55.344Z,69.54
2019-05-25T09:41:55.327Z,69.83
2019-05-25T09:42:55.347Z,69.64
2019-05-25T09:43:55.288Z,70.98
2019-05-25T09:44:55.273Z,71.40
2019-05-25T09:45:55.247Z,69.87
2019-05-25T09:46:55.234Z,69.07
2019-05-25T09:47:55.219Z,70.50
2019-05-25T09:48:55.220Z,70.60
2019-05-25T09:49:55.175Z,70.50
2019-05-25T09:50:55.173Z,69.54
2019-05-25T09:51:55.140Z,69.45
2019-05-25T09:52:55.118Z,70.37
2019-05-25T09:53:55.109Z,71.14
2019-05-25T09:54:55.778Z,72.09
2019-05-25T09:55:55.064Z,72.09
2019-05-25T09:56:55.058Z,71.94
2019-05-25T09:57:55.038Z,70.98
2019-05-25T09:58:55.017Z,69.54
2019-05-25T09:59:54.998Z,71.27
2019-05-25T10:00:54.981Z,70.83
2019-05-25T10:01:54.964Z,69.77
2019-05-25T10:02:54.947Z,69.87
2019-05-25T10:03:56.764Z,69.74
2019-05-25T10:04:54.901Z,69.45
2019-05-25T10:05:54.883Z,69.48
2019-05-25T10:06:54.864Z,69.10
2019-05-25T10:07:54.854Z,69.20
2019-05-25T10:08:54.841Z,66.93
2019-05-25T10:09:54.810Z,67.22
2019-05-25T10:10:54.801Z,67.22
2019-05-25T10:11:54.781Z,68.56
2019-05-25T10:12:54.756Z,66.93
2019-05-25T10:13:54.745Z,66.35
2019-05-25T10:14:54.725Z,66.19
2019-05-25T10:15:54.708Z,65.59
2019-05-25T10:16:54.689Z,65.30
2019-05-25T10:17:54.671Z,65.78
2019-05-25T10:18:54.656Z,66.06
2019-05-25T10:19:54.666Z,65.97
2019-05-25T10:20:54.624Z,67.16
2019-05-25T10:21:54.667Z,66.96
2019-05-25T10:22:54.581Z,66.19
2019-05-25T10:23:54.562Z,66.39
2019-05-25T10:24:54.544Z,65.72
2019-05-25T10:25:54.526Z,65.30
2019-05-25T10:26:54.520Z,65.88
2019-05-25T10:27:54.498Z,66.16
2019-05-25T10:28:54.472Z,66.89
2019-05-25T10:29:54.517Z,66.89
2019-05-25T10:30:54.441Z,67.09
2019-05-25T10:31:54.419Z,67.76
2019-05-25T10:32:54.403Z,67.91
2019-05-25T10:33:54.381Z,68.97
2019-05-25T10:34:54.379Z,68.91
2019-05-25T10:35:54.369Z,68.33
2019-05-25T10:36:54.391Z,68.52
2019-05-25T10:37:54.326Z,67.66
2019-05-25T10:38:54.303Z,67.85
2019-05-25T10:39:54.273Z,67.38
2019-05-25T10:40:54.255Z,67.89
2019-05-25T10:41:54.234Z,66.22
2019-05-25T10:42:54.221Z,66.71
2019-05-25T10:43:54.204Z,67.47
2019-05-25T10:44:54.180Z,68.43
2019-05-25T10:45:54.162Z,68.33
2019-05-25T10:46:54.146Z,69.39
2019-05-25T10:47:54.133Z,68.72
2019-05-25T10:48:54.108Z,68.62
2019-05-25T10:49:54.097Z,68.33
2019-05-25T10:50:54.075Z,67.66
2019-05-25T10:51:54.061Z,68.40
2019-05-25T10:52:54.064Z,69.17
2019-05-25T10:53:54.020Z,68.43
2019-05-25T10:54:54.000Z,67.18
2019-05-25T10:55:53.981Z,67.09
2019-05-25T10:56:53.962Z,67.18
2019-05-25T10:57:53.974Z,66.51
2019-05-25T10:58:53.926Z,65.55
2019-05-25T10:59:53.917Z,66.74
2019-05-25T11:00:53.888Z,66.16
2019-05-25T11:01:53.875Z,65.01
2019-05-25T11:02:53.855Z,65.01
2019-05-25T11:03:53.836Z,65.52
2019-05-25T11:04:53.824Z,64.76
2019-05-25T11:05:53.800Z,64.76
2019-05-25T11:06:53.779Z,63.03
2019-05-25T11:07:53.764Z,63.29
2019-05-25T11:08:53.743Z,64.28
2019-05-25T11:09:53.727Z,62.36
2019-05-25T11:10:53.713Z,63.32
2019-05-25T11:11:53.689Z,63.22
2019-05-25T11:12:53.689Z,63.51
2019-05-25T11:13:53.652Z,63.42
2019-05-25T11:14:53.640Z,63.38
2019-05-25T11:15:53.622Z,64.25
2019-05-25T11:16:53.614Z,64.34
2019-05-25T11:17:53.596Z,65.39
2019-05-25T11:18:53.565Z,65.11
2019-05-25T11:19:53.561Z,65.49
2019-05-25T11:20:53.536Z,66.35
2019-05-25T11:21:53.525Z,66.89
2019-05-25T11:22:53.506Z,67.69
2019-05-25T11:23:53.481Z,66.93
2019-05-25T11:24:53.458Z,66.26
2019-05-25T11:25:53.455Z,66.26
2019-05-25T11:26:53.437Z,65.59
2019-05-25T11:27:53.407Z,67.22
2019-05-25T11:28:53.487Z,66.35
2019-05-25T11:30:08.080Z,65.97
2019-05-25T11:30:53.362Z,65.97
2019-05-25T11:31:58.379Z,65.39
2019-05-25T11:32:53.321Z,64.25
2019-05-25T11:33:53.298Z,65.43
2019-05-25T11:34:53.281Z,64.37
2019-05-25T11:35:53.266Z,63.67
2019-05-25T11:36:53.254Z,65.05
2019-05-25T11:37:53.226Z,65.30
2019-05-25T11:38:53.229Z,65.01
2019-05-25T11:39:53.196Z,65.49
2019-05-25T11:40:53.173Z,65.68
2019-05-25T11:41:53.155Z,66.55
2019-05-25T11:42:53.153Z,66.16
2019-05-25T11:43:53.123Z,66.58
2019-05-25T11:44:53.107Z,65.59
2019-05-25T11:45:53.091Z,65.68
2019-05-25T11:46:53.081Z,65.11
2019-05-25T11:47:53.056Z,64.18
2019-05-25T11:48:53.043Z,64.09
2019-05-25T11:49:53.015Z,63.67
2019-05-25T11:50:52.997Z,65.01
2019-05-25T11:51:52.990Z,65.11
2019-05-25T11:52:53.018Z,65.20
2019-05-25T11:53:52.944Z,64.82
2019-05-25T11:54:52.931Z,65.68
2019-05-25T11:55:52.930Z,65.72
2019-05-25T11:56:52.890Z,65.30
2019-05-25T11:57:52.874Z,65.72
2019-05-25T11:58:52.857Z,64.85
2019-05-25T11:59:52.853Z,65.05
2019-05-25T12:00:52.826Z,65.01
2019-05-25T12:01:52.808Z,66.00
2019-05-25T12:02:52.789Z,65.30
2019-05-25T12:03:52.782Z,65.39
2019-05-25T12:04:52.753Z,65.72
2019-05-25T12:05:52.738Z,65.72
2019-05-25T12:06:52.726Z,66.23
2019-05-25T12:07:52.702Z,64.69
2019-05-25T12:08:52.750Z,63.67
2019-05-25T12:09:52.679Z,63.96
2019-05-25T12:10:52.661Z,62.81
2019-05-25T12:11:52.652Z,61.75
2019-05-25T12:12:52.615Z,62.01
2019-05-25T12:13:52.600Z,64.79
2019-05-25T12:14:52.588Z,62.99
2019-05-25T12:15:52.576Z,61.75
2019-05-25T12:16:52.548Z,62.42
2019-05-25T12:17:52.534Z,62.42
2019-05-25T12:18:52.521Z,61.75
2019-05-25T12:19:52.497Z,62.32
2019-05-25T12:20:52.479Z,63.41
2019-05-25T12:21:52.519Z,61.78
2019-05-25T12:22:52.461Z,60.82
2019-05-25T12:23:52.430Z,60.82
2019-05-25T12:24:52.424Z,61.01
2019-05-25T12:25:52.404Z,61.75
2019-05-25T12:26:52.385Z,61.62
2019-05-25T12:27:52.370Z,63.25
2019-05-25T12:28:52.350Z,62.58
2019-05-25T12:29:52.346Z,62.65
2019-05-25T12:30:52.320Z,62.93
2019-05-25T12:32:03.396Z,64.09
2019-05-25T12:32:52.286Z,63.99
2019-05-25T12:33:52.271Z,63.79
2019-05-25T12:34:52.263Z,64.28
2019-05-25T12:35:52.239Z,63.99
2019-05-25T12:36:52.220Z,63.99
2019-05-25T12:37:52.205Z,63.89
2019-05-25T12:38:52.185Z,63.22
2019-05-25T12:39:52.171Z,63.32
2019-05-25T12:40:53.842Z,63.32
2019-05-25T12:41:52.143Z,63.12
2019-05-25T12:42:52.128Z,63.60
2019-05-25T12:43:52.099Z,64.56
2019-05-25T12:44:52.083Z,64.28
2019-05-25T12:45:52.084Z,64.02
2019-05-25T12:46:52.056Z,62.87
2019-05-25T12:47:52.040Z,62.68
2019-05-25T12:48:52.016Z,62.39
2019-05-25T12:49:52.000Z,62.58
2019-05-25T12:50:51.982Z,62.74
2019-05-25T12:51:51.966Z,63.73